Time;durP1;ratioP1;P1;durP2;ratioP2;P2;SDS_P1;SDS_P2;PMS_P1;PMS_P2;Temp;Humidity;BMP_temperature;BMP_pressure;BME280_temperature;BME280_humidity;BME280_pressure;Samples;Min_cycle;Max_cycle;Signal;HPM_P1;HPM_P2
2021/05/06 00:32:24;;;;;;;1.20;0.32;;;16.90;52.00;;;;;;5091612;28;20060;-76
2021/05/06 00:34:49;;;;;;;2.05;0.50;;;16.90;52.00;;;;;;5091003;28;20089;-77
2021/05/06 00:37:17;;;;;;;1.23;0.50;;;16.90;52.00;;;;;;5091753;28;20475;-76
2021/05/06 00:39:49;;;;;;;1.70;0.47;;;16.90;52.00;;;;;;5091631;28;20120;-77
2021/05/06 00:42:29;;;;;;;1.13;0.50;;;16.90;52.00;;;;;;5091910;28;20162;-76
2021/05/06 00:59:54;;;;;;;1.52;0.50;;;16.70;52.00;;;;;;5090893;28;20046;-77
2021/05/06 01:07:01;;;;;;;1.70;0.50;;;16.70;52.10;;;;;;5091222;28;20039;-78
2021/05/06 01:09:33;;;;;;;2.05;0.50;;;16.70;52.10;;;;;;5089363;28;20492;-77
2021/05/06 01:12:03;;;;;;;1.95;0.60;;;16.70;52.10;;;;;;5090023;28;20361;-79
2021/05/06 01:14:29;;;;;;;2.15;0.88;;;16.70;52.10;;;;;;5090755;28;20427;-78
2021/05/06 01:16:55;;;;;;;1.05;0.40;;;16.60;52.10;;;;;;5091102;28;20429;-78
2021/05/06 01:19:21;;;;;;;1.52;0.50;;;16.60;52.10;;;;;;5091369;28;20543;-76
2021/05/06 01:21:47;;;;;;;2.40;1.00;;;16.60;52.10;;;;;;5091462;28;20028;-76
2021/05/06 01:24:12;;;;;;;1.88;0.73;;;16.60;52.20;;;;;;5089722;28;20496;-78
2021/05/06 01:29:13;;;;;;;1.25;0.50;;;16.60;52.20;;;;;;5091277;28;20028;-75
2021/05/06 01:31:45;;;;;;;1.55;0.40;;;16.60;52.30;;;;;;5090959;28;20114;-76
2021/05/06 01:34:15;;;;;;;2.50;0.80;;;16.50;52.20;;;;;;5090626;28;20499;-76
2021/05/06 01:36:47;;;;;;;1.42;0.40;;;16.50;52.20;;;;;;5070968;28;20016;-78
2021/05/06 01:42:14;;;;;;;2.90;0.60;;;16.50;52.20;;;;;;5086865;28;20031;-77
2021/05/06 01:47:24;;;;;;;2.03;0.60;;;16.50;52.30;;;;;;5090083;28;20418;-77
2021/05/06 01:50:12;;;;;;;2.58;0.50;;;16.50;52.30;;;;;;5091440;28;20440;-77
2021/05/06 02:00:39;;;;;;;1.17;0.47;;;16.40;52.30;;;;;;5090670;28;20479;-75
2021/05/06 02:03:04;;;;;;;2.33;0.60;;;16.40;52.30;;;;;;5071930;28;20032;-76
2021/05/06 02:05:30;;;;;;;3.67;0.70;;;16.40;52.40;;;;;;5088960;28;20020;-76
2021/05/06 02:07:56;;;;;;;3.08;0.70;;;16.40;52.40;;;;;;5089575;28;20024;-76
2021/05/06 02:10:25;;;;;;;2.38;0.50;;;16.40;52.40;;;;;;5089146;28;20024;-76
2021/05/06 02:12:51;;;;;;;1.52;0.40;;;16.40;52.40;;;;;;5089385;28;20032;-77
2021/05/06 02:15:22;;;;;;;2.42;0.75;;;16.40;52.40;;;;;;5090780;28;20028;-76
2021/05/06 02:17:48;;;;;;;1.80;0.65;;;16.30;52.90;;;;;;5090627;28;20061;-76
2021/05/06 02:20:15;;;;;;;1.58;0.60;;;16.30;52.40;;;;;;5091987;28;20032;-77
2021/05/06 02:22:41;;;;;;;2.25;0.52;;;16.30;52.50;;;;;;5094447;28;20103;-78
2021/05/06 02:25:07;;;;;;;1.42;0.60;;;16.30;52.50;;;;;;5093879;28;20112;-75
2021/05/06 02:27:34;;;;;;;1.30;0.50;;;16.30;52.50;;;;;;5094045;28;20024;-78
2021/05/06 02:29:59;;;;;;;1.35;0.57;;;16.30;52.50;;;;;;5093156;28;20031;-78
2021/05/06 02:32:28;;;;;;;1.90;0.40;;;16.30;52.50;;;;;;5092773;28;20025;-77
2021/05/06 02:34:55;;;;;;;1.73;0.50;;;16.30;52.50;;;;;;5094084;28;20517;-79
2021/05/06 02:37:21;;;;;;;2.17;0.50;;;16.30;52.50;;;;;;5092717;28;20047;-77
2021/05/06 02:39:46;;;;;;;1.35;0.50;;;16.30;52.50;;;;;;5094314;28;20403;-77
2021/05/06 02:42:13;;;;;;;1.65;0.70;;;16.30;52.50;;;;;;5093816;28;20035;-78
2021/05/06 02:44:40;;;;;;;1.30;0.50;;;16.30;52.60;;;;;;5094212;28;20138;-79
2021/05/06 02:47:06;;;;;;;1.70;0.57;;;16.20;52.50;;;;;;5093344;28;20042;-76
2021/05/06 02:49:32;;;;;;;2.33;0.70;;;16.20;52.50;;;;;;5093965;28;20024;-78
2021/05/06 02:52:10;;;;;;;2.30;0.70;;;16.20;52.50;;;;;;5093954;28;20093;-77
2021/05/06 02:54:40;;;;;;;1.63;0.70;;;16.20;52.50;;;;;;5093322;28;20072;-77
2021/05/06 02:57:17;;;;;;;1.55;0.60;;;16.20;52.60;;;;;;5093358;28;20074;-75
2021/05/06 03:05:11;;;;;;;1.58;0.70;;;16.20;52.60;;;;;;5093721;28;20407;-76
2021/05/06 03:07:38;;;;;;;1.88;0.80;;;16.20;52.60;;;;;;5093917;28;20025;-76
2021/05/06 03:12:46;;;;;;;2.25;0.93;;;16.10;52.60;;;;;;5093360;28;20475;-75
2021/05/06 03:23:24;;;;;;;2.47;0.70;;;16.10;52.70;;;;;;5073298;28;20074;-77
2021/05/06 03:25:50;;;;;;;1.70;0.70;;;16.10;52.70;;;;;;5088027;28;20028;-77
2021/05/06 03:28:24;;;;;;;1.83;0.60;;;16.10;52.70;;;;;;5077217;28;20024;-76
2021/05/06 03:41:39;;;;;;;1.80;0.82;;;16.10;52.80;;;;;;5092339;28;20313;-77
2021/05/06 04:16:35;;;;;;;3.70;0.75;;;15.90;52.70;;;;;;5091661;28;20513;-77
2021/05/06 04:21:56;;;;;;;1.17;0.68;;;15.90;52.80;;;;;;5092175;28;20090;-78
2021/05/06 04:37:55;;;;;;;2.08;0.85;;;15.90;52.80;;;;;;5091719;28;20495;-78
2021/05/06 04:56:21;;;;;;;1.20;0.60;;;15.80;52.80;;;;;;5091008;28;20020;-78
2021/05/06 05:07:07;;;;;;;1.85;0.88;;;15.80;52.80;;;;;;5091058;28;20028;-77
2021/05/06 05:17:35;;;;;;;1.58;0.70;;;15.80;52.80;;;;;;5091000;28;20634;-79
2021/05/06 05:18:01;;;;;;;1.58;0.60;;;15.80;52.90;;;;;;5091181;28;20055;-79
2021/05/06 05:21:15;;;;;;;3.75;1.02;;;15.80;52.90;;;;;;5091287;28;20455;-76
2021/05/06 05:26:00;;;;;;;4.75;0.70;;;15.80;53.00;;;;;;5090804;28;20028;-78
2021/05/06 05:28:26;;;;;;;1.45;0.55;;;15.90;53.70;;;;;;5090179;28;20028;-80
2021/05/06 05:30:52;;;;;;;3.75;1.27;;;15.90;53.00;;;;;;5091244;28;20024;-79
2021/05/06 05:33:18;;;;;;;2.53;0.80;;;15.90;53.00;;;;;;5090500;28;20089;-79
2021/05/06 05:36:05;;;;;;;3.25;0.80;;;15.80;53.00;;;;;;5090641;28;20028;-80
2021/05/06 05:54:46;;;;;;;2.30;0.70;;;15.90;53.50;;;;;;5090903;28;20105;-76
2021/05/06 05:57:11;;;;;;;2.35;0.70;;;15.90;53.30;;;;;;5094250;28;20400;-78
2021/05/06 05:59:37;;;;;;;1.23;0.60;;;15.90;53.30;;;;;;5094537;28;20032;-78
2021/05/06 06:02:03;;;;;;;5.88;1.08;;;15.90;53.40;;;;;;5094524;28;20078;-79
2021/05/06 06:04:29;;;;;;;2.42;1.02;;;15.90;53.40;;;;;;5094606;28;20032;-78
2021/05/06 06:06:55;;;;;;;1.83;0.80;;;15.90;53.40;;;;;;5093096;28;20032;-78
2021/05/06 06:09:21;;;;;;;1.73;0.60;;;15.90;53.50;;;;;;5094531;28;20036;-78
2021/05/06 06:11:46;;;;;;;5.10;0.80;;;15.90;53.40;;;;;;5094534;28;20107;-78
2021/05/06 06:14:12;;;;;;;2.45;0.80;;;15.90;53.40;;;;;;5093920;28;20047;-78
2021/05/06 06:16:41;;;;;;;2.75;0.90;;;15.90;53.70;;;;;;5093851;28;20076;-74
2021/05/06 06:19:07;;;;;;;3.33;0.70;;;15.90;53.70;;;;;;5094438;28;20123;-74
2021/05/06 06:23:59;;;;;;;2.33;0.75;;;15.90;53.60;;;;;;5094181;28;20027;-75
2021/05/06 06:26:26;;;;;;;1.95;0.77;;;16.00;53.70;;;;;;5090692;28;20024;-77
2021/05/06 06:28:54;;;;;;;1.60;0.70;;;16.00;53.70;;;;;;5093186;28;20032;-78
2021/05/06 06:31:23;;;;;;;2.63;0.60;;;16.00;53.70;;;;;;5090124;28;20020;-76
2021/05/06 06:33:49;;;;;;;2.45;0.70;;;15.90;53.60;;;;;;5093405;28;20118;-76
2021/05/06 06:36:18;;;;;;;1.70;0.77;;;16.00;53.70;;;;;;5093427;28;20162;-76
2021/05/06 06:38:45;;;;;;;2.47;0.80;;;16.00;53.70;;;;;;5092329;28;20373;-77
2021/05/06 06:41:12;;;;;;;2.92;0.90;;;16.00;53.70;;;;;;5092374;28;20115;-77
2021/05/06 06:43:41;;;;;;;4.28;1.27;;;16.00;53.70;;;;;;5092433;28;20024;-76
2021/05/06 06:46:07;;;;;;;2.28;0.88;;;16.00;53.60;;;;;;5092110;28;20400;-75
2021/05/06 06:48:33;;;;;;;1.17;0.60;;;16.10;53.70;;;;;;5094244;28;20016;-82
2021/05/06 06:50:59;;;;;;;2.60;0.60;;;16.10;53.60;;;;;;5094389;28;20103;-82
2021/05/06 06:53:25;;;;;;;1.83;0.60;;;16.20;53.50;;;;;;5093679;28;20046;-83
2021/05/06 06:55:50;;;;;;;3.17;0.75;;;16.40;53.40;;;;;;5093915;28;20380;-82
2021/05/06 06:58:17;;;;;;;2.25;0.70;;;16.60;53.20;;;;;;5095558;28;20024;-83
2021/05/06 07:00:45;;;;;;;1.42;0.70;;;16.80;53.10;;;;;;5095442;28;20027;-81
2021/05/06 07:03:13;;;;;;;2.65;0.60;;;17.00;52.90;;;;;;5093747;28;20016;-81
2021/05/06 07:05:40;;;;;;;6.22;1.60;;;17.20;52.80;;;;;;5093488;28;20492;-82
2021/05/06 07:08:23;;;;;;;2.63;0.90;;;17.30;53.30;;;;;;5093883;28;20016;-80
2021/05/06 07:10:52;;;;;;;0.93;0.57;;;17.40;53.10;;;;;;5091770;28;20047;-80
2021/05/06 07:13:18;;;;;;;1.98;0.80;;;17.50;53.00;;;;;;5091900;28;20024;-81
2021/05/06 07:15:51;;;;;;;4.68;0.80;;;17.50;53.10;;;;;;5093674;28;20024;-79
2021/05/06 07:18:18;;;;;;;2.95;1.00;;;17.50;53.00;;;;;;5093799;28;20389;-80
2021/05/06 07:20:45;;;;;;;6.60;0.70;;;17.50;53.30;;;;;;5107381;28;20069;-84
2021/05/06 07:23:18;;;;;;;3.92;1.05;;;17.60;53.30;;;;;;5092085;28;20055;-82
2021/05/06 07:25:49;;;;;;;3.28;0.82;;;17.50;53.20;;;;;;5092478;28;20024;-81
2021/05/06 07:28:20;;;;;;;2.60;0.90;;;17.60;53.00;;;;;;5091900;28;20020;-84
2021/05/06 07:30:47;;;;;;;3.50;0.52;;;17.60;52.90;;;;;;5089437;28;20062;-80
2021/05/06 07:33:17;;;;;;;17.40;1.27;;;17.70;53.00;;;;;;5091219;28;20118;-76
2021/05/06 07:35:43;;;;;;;5.45;1.05;;;17.80;52.90;;;;;;5090187;28;20043;-76
2021/05/06 07:38:10;;;;;;;1.65;0.80;;;17.80;52.80;;;;;;5091494;28;20016;-76
2021/05/06 07:40:37;;;;;;;2.08;0.55;;;17.90;52.80;;;;;;5090243;28;20752;-75
2021/05/06 07:43:04;;;;;;;2.58;0.60;;;18.00;52.60;;;;;;5089084;28;20069;-79
2021/05/06 07:45:30;;;;;;;3.28;0.60;;;18.10;52.50;;;;;;5091243;28;20024;-77
2021/05/06 07:47:59;;;;;;;3.95;0.70;;;18.20;52.70;;;;;;5092949;28;20035;-81
2021/05/06 07:50:26;;;;;;;9.18;0.95;;;18.30;52.20;;;;;;5092748;28;20020;-85
2021/05/06 07:52:54;;;;;;;3.22;0.60;;;18.30;52.40;;;;;;5093033;28;20040;-83
2021/05/06 07:55:20;;;;;;;4.43;0.70;;;18.30;52.50;;;;;;5092420;28;20067;-78
2021/05/06 07:57:46;;;;;;;4.63;0.70;;;18.40;52.70;;;;;;5093286;28;20101;-83
2021/05/06 08:00:18;;;;;;;4.18;0.77;;;18.40;52.70;;;;;;5092745;28;20032;-83
2021/05/06 08:02:47;;;;;;;3.75;1.00;;;18.50;52.50;;;;;;5091770;28;20016;-83
2021/05/06 08:05:13;;;;;;;2.55;0.82;;;18.60;52.90;;;;;;5092810;28;20560;-82
2021/05/06 08:07:39;;;;;;;4.93;1.05;;;18.60;52.20;;;;;;5093089;28;20028;-82
2021/05/06 08:10:06;;;;;;;6.93;0.80;;;18.60;52.10;;;;;;5092877;28;20081;-80
2021/05/06 08:12:31;;;;;;;4.53;0.63;;;18.70;52.20;;;;;;5089344;28;20055;-81
2021/05/06 08:14:57;;;;;;;6.22;0.70;;;18.70;52.10;;;;;;5091970;28;20071;-81
2021/05/06 08:17:24;;;;;;;1.77;0.85;;;18.70;52.10;;;;;;5091037;28;20038;-80
2021/05/06 08:19:49;;;;;;;6.07;0.88;;;18.90;52.10;;;;;;5092595;28;20043;-81
2021/05/06 08:22:15;;;;;;;1.90;0.55;;;19.00;52.00;;;;;;5092591;28;20024;-79
2021/05/06 08:24:41;;;;;;;3.45;0.70;;;18.90;51.90;;;;;;5090758;28;20504;-83
2021/05/06 08:27:07;;;;;;;6.15;1.52;;;19.00;52.00;;;;;;5091396;28;20495;-78
2021/05/06 08:29:33;;;;;;;3.05;0.55;;;19.00;51.90;;;;;;5091527;28;20088;-78
2021/05/06 08:31:58;;;;;;;3.28;0.52;;;19.00;51.90;;;;;;5091647;28;20111;-77
2021/05/06 08:34:24;;;;;;;3.05;0.50;;;19.00;52.10;;;;;;5091630;28;20044;-78
2021/05/06 08:36:49;;;;;;;6.00;0.70;;;19.10;52.00;;;;;;5091579;28;20032;-82
2021/05/06 08:39:15;;;;;;;4.55;0.65;;;19.10;51.90;;;;;;5090089;28;20056;-79
2021/05/06 08:41:42;;;;;;;8.27;0.63;;;19.10;51.80;;;;;;5091172;28;20674;-79
2021/05/06 08:44:11;;;;;;;2.55;0.70;;;19.10;51.70;;;;;;5095458;28;20541;-79
2021/05/06 08:46:43;;;;;;;2.35;0.80;;;19.20;51.80;;;;;;5091898;28;20107;-79
2021/05/06 08:49:08;;;;;;;3.33;0.75;;;19.20;51.70;;;;;;5091335;28;20101;-80
2021/05/06 08:51:35;;;;;;;0.70;0.43;;;19.20;51.80;;;;;;5091422;28;20478;-80
2021/05/06 08:54:00;;;;;;;2.85;0.60;;;19.30;51.90;;;;;;5091786;28;20044;-79
2021/05/06 08:56:27;;;;;;;2.47;1.35;;;19.30;52.00;;;;;;5090284;28;20020;-81
2021/05/06 08:58:53;;;;;;;8.45;1.42;;;19.30;53.40;;;;;;5090826;28;20410;-76
2021/05/06 09:01:18;;;;;;;3.83;1.00;;;19.40;53.10;;;;;;5100514;28;20078;-76
2021/05/06 09:03:44;;;;;;;3.53;0.82;;;19.50;53.50;;;;;;5112073;28;20064;-77
2021/05/06 09:06:12;;;;;;;2.65;1.10;;;19.50;52.70;;;;;;5098364;28;20020;-76
2021/05/06 09:08:40;;;;;;;6.47;0.95;;;19.60;52.70;;;;;;5090018;28;20035;-76
2021/05/06 09:11:07;;;;;;;6.00;1.08;;;19.60;52.40;;;;;;5088499;28;20442;-76
2021/05/06 09:13:34;;;;;;;4.05;0.98;;;19.70;52.20;;;;;;5089931;28;20074;-76
2021/05/06 09:16:01;;;;;;;2.58;0.70;;;19.70;51.90;;;;;;5089890;28;20028;-84
2021/05/06 09:18:44;;;;;;;2.97;1.00;;;19.80;52.00;;;;;;5090513;28;20413;-78
2021/05/06 09:21:31;;;;;;;3.50;0.70;;;19.80;51.50;;;;;;5104443;28;20123;-79
2021/05/06 09:24:07;;;;;;;1.85;0.70;;;19.90;51.80;;;;;;5091647;28;20012;-83
2021/05/06 09:26:33;;;;;;;6.28;0.93;;;20.00;51.60;;;;;;5089869;28;20035;-77
2021/05/06 09:29:01;;;;;;;4.60;0.77;;;20.00;51.70;;;;;;5088048;28;20024;-78
2021/05/06 09:31:27;;;;;;;3.25;0.90;;;20.10;51.50;;;;;;5088967;28;20089;-78
2021/05/06 09:33:52;;;;;;;5.72;0.90;;;20.10;51.30;;;;;;5089869;28;20039;-77
2021/05/06 09:36:20;;;;;;;5.60;0.80;;;20.20;51.00;;;;;;5085722;28;20450;-76
2021/05/06 09:38:57;;;;;;;2.08;0.70;;;20.20;51.40;;;;;;5079641;28;20028;-77
2021/05/06 09:41:30;;;;;;;14.13;1.02;;;20.30;50.70;;;;;;5086353;28;20052;-76
2021/05/06 09:44:22;;;;;;;5.82;0.90;;;20.40;51.00;;;;;;5088590;28;20068;-78
2021/05/06 09:46:57;;;;;;;6.30;0.70;;;20.50;50.80;;;;;;5098241;28;20043;-76
2021/05/06 09:49:23;;;;;;;4.25;0.60;;;20.50;50.70;;;;;;5087064;28;20031;-76
2021/05/06 09:51:57;;;;;;;2.90;0.70;;;20.50;50.70;;;;;;5075720;28;20024;-77
2021/05/06 09:54:25;;;;;;;2.72;0.63;;;20.50;50.70;;;;;;5089099;28;20055;-80
2021/05/06 09:56:58;;;;;;;4.35;1.00;;;20.50;50.90;;;;;;5076316;28;20489;-78
2021/05/06 09:59:26;;;;;;;3.78;0.80;;;20.50;50.90;;;;;;5087333;28;20032;-75
2021/05/06 10:01:52;;;;;;;2.10;0.80;;;20.50;51.20;;;;;;5090117;28;20062;-76
2021/05/06 10:04:26;;;;;;;3.53;0.65;;;20.40;51.20;;;;;;5087978;28;20067;-76
2021/05/06 10:07:16;;;;;;;3.92;0.75;;;20.40;51.30;;;;;;5086794;28;20044;-76
2021/05/06 10:10:06;;;;;;;2.95;0.80;;;20.40;51.30;;;;;;5079589;28;20059;-77
2021/05/06 10:12:38;;;;;;;3.58;0.77;;;20.30;51.80;;;;;;5087290;28;20077;-77
2021/05/06 10:15:06;;;;;;;2.25;0.68;;;20.30;51.20;;;;;;5089460;28;20047;-76
2021/05/06 10:17:32;;;;;;;1.88;0.73;;;20.30;51.20;;;;;;5088737;28;20008;-76
2021/05/06 10:19:59;;;;;;;4.95;0.60;;;20.30;51.20;;;;;;5088415;28;20483;-75
2021/05/06 10:22:27;;;;;;;3.17;1.00;;;20.30;51.20;;;;;;5089466;28;20099;-75
2021/05/06 10:24:53;;;;;;;4.43;1.35;;;20.30;51.20;;;;;;5088097;28;20032;-75
2021/05/06 10:27:21;;;;;;;2.28;0.75;;;20.20;51.20;;;;;;5089176;28;20399;-76
2021/05/06 10:29:51;;;;;;;2.28;0.68;;;20.20;51.40;;;;;;5090112;28;20448;-75
2021/05/06 10:32:18;;;;;;;4.05;0.80;;;20.20;51.50;;;;;;5080497;28;20016;-76
2021/05/06 10:34:47;;;;;;;2.88;0.60;;;20.10;51.60;;;;;;5082619;28;20126;-76
2021/05/06 10:37:13;;;;;;;2.30;1.00;;;20.10;52.00;;;;;;5083235;28;20074;-76
2021/05/06 10:39:44;;;;;;;4.30;1.27;;;20.10;51.90;;;;;;5085440;28;20048;-76
2021/05/06 10:42:29;;;;;;;6.45;0.73;;;20.10;52.20;;;;;;5089407;28;20047;-76
2021/05/06 10:44:56;;;;;;;3.23;0.80;;;20.00;52.20;;;;;;5093552;28;20055;-76
2021/05/06 10:47:48;;;;;;;3.58;0.80;;;20.10;52.40;;;;;;5080379;28;20032;-76
2021/05/06 10:50:18;;;;;;;4.57;0.80;;;20.00;52.30;;;;;;5081751;28;20028;-74
2021/05/06 10:52:55;;;;;;;3.05;0.60;;;20.00;52.10;;;;;;5092824;28;20036;-75
2021/05/06 10:55:41;;;;;;;2.63;0.70;;;20.00;52.20;;;;;;5090778;28;20043;-75
2021/05/06 10:58:29;;;;;;;4.88;0.65;;;20.00;52.20;;;;;;5093407;28;20496;-76
2021/05/06 11:01:09;;;;;;;2.70;0.90;;;19.90;52.10;;;;;;5093053;28;20476;-76
2021/05/06 11:03:36;;;;;;;4.28;0.73;;;19.90;52.00;;;;;;5085648;28;20059;-76
2021/05/06 11:06:03;;;;;;;2.63;0.80;;;19.90;51.90;;;;;;5089414;28;20108;-76
2021/05/06 11:08:31;;;;;;;3.03;0.80;;;19.90;51.90;;;;;;5082162;28;20059;-76
2021/05/06 11:10:56;;;;;;;1.25;0.55;;;19.90;51.80;;;;;;5091981;28;20028;-77
2021/05/06 11:13:26;;;;;;;3.78;0.75;;;19.80;51.80;;;;;;5092798;28;20042;-75
2021/05/06 11:16:12;;;;;;;4.30;0.63;;;19.80;51.90;;;;;;5092789;28;20036;-74
2021/05/06 11:18:44;;;;;;;3.00;1.00;;;19.80;52.10;;;;;;5088118;28;20164;-74
2021/05/06 11:21:33;;;;;;;4.80;1.73;;;19.70;52.00;;;;;;5091985;28;20058;-73
2021/05/06 11:24:17;;;;;;;4.93;1.10;;;19.70;52.70;;;;;;5085635;28;20028;-76
2021/05/06 11:27:08;;;;;;;2.65;1.05;;;19.70;52.60;;;;;;5089971;28;20478;-75
2021/05/06 11:29:36;;;;;;;3.08;1.10;;;19.70;52.60;;;;;;5091609;28;20024;-73
2021/05/06 11:32:02;;;;;;;6.22;1.15;;;19.70;52.50;;;;;;5092922;28;20020;-75
2021/05/06 11:34:37;;;;;;;5.32;1.05;;;19.80;52.80;;;;;;5091525;28;20414;-75
2021/05/06 11:37:12;;;;;;;1.88;0.77;;;19.80;52.90;;;;;;5087551;28;20468;-75
2021/05/06 11:40:03;;;;;;;3.13;0.82;;;19.90;52.90;;;;;;5074694;28;20024;-78
2021/05/06 11:42:36;;;;;;;2.75;0.80;;;19.90;52.80;;;;;;5083056;28;20051;-79
2021/05/06 11:45:11;;;;;;;2.85;0.85;;;20.00;52.80;;;;;;5091822;28;20492;-78
2021/05/06 11:47:37;;;;;;;2.88;0.85;;;20.10;52.80;;;;;;5075990;28;20051;-75
2021/05/06 11:50:21;;;;;;;3.30;0.77;;;20.10;52.60;;;;;;5092371;28;20119;-77
2021/05/06 11:52:47;;;;;;;5.65;1.10;;;20.20;52.70;;;;;;5091674;28;20035;-78
2021/05/06 11:55:38;;;;;;;7.05;1.30;;;20.20;52.60;;;;;;5091729;28;20042;-75
2021/05/06 11:58:04;;;;;;;2.67;0.80;;;20.20;52.50;;;;;;5079660;28;20077;-78
2021/05/06 12:00:31;;;;;;;2.65;0.80;;;20.30;52.40;;;;;;5092124;28;20483;-77
2021/05/06 12:03:08;;;;;;;3.38;0.80;;;20.30;52.40;;;;;;5077338;28;20507;-78
2021/05/06 12:05:56;;;;;;;2.33;0.77;;;20.40;52.40;;;;;;5091117;28;20373;-77
2021/05/06 12:08:24;;;;;;;2.50;0.77;;;20.40;52.20;;;;;;5090114;28;20027;-78
2021/05/06 12:10:51;;;;;;;3.20;1.13;;;20.50;52.10;;;;;;5090476;28;20055;-77
2021/05/06 12:13:28;;;;;;;3.00;0.88;;;20.60;51.90;;;;;;5090849;28;20020;-78
2021/05/06 12:16:08;;;;;;;3.65;0.90;;;20.60;51.70;;;;;;5084352;28;20024;-76
2021/05/06 12:18:34;;;;;;;4.35;0.98;;;20.60;51.50;;;;;;5083247;28;20059;-76
2021/05/06 12:21:04;;;;;;;3.15;1.20;;;20.60;51.20;;;;;;5091949;28;20055;-76
2021/05/06 12:23:30;;;;;;;4.97;1.27;;;20.60;51.10;;;;;;5090501;28;20492;-76
2021/05/06 12:25:55;;;;;;;3.75;0.98;;;20.60;51.50;;;;;;5090933;28;20031;-75
2021/05/06 12:28:21;;;;;;;2.10;0.85;;;20.60;51.40;;;;;;5090479;28;20028;-75
2021/05/06 12:30:47;;;;;;;4.68;0.88;;;20.60;51.70;;;;;;5088083;28;20028;-74
2021/05/06 12:33:27;;;;;;;9.93;1.40;;;20.70;52.00;;;;;;5089122;28;20499;-75
2021/05/06 12:35:53;;;;;;;3.58;0.70;;;20.80;52.10;;;;;;5087968;28;20040;-73
2021/05/06 12:38:19;;;;;;;3.95;0.80;;;21.00;51.50;;;;;;5090175;28;20034;-74
2021/05/06 12:40:45;;;;;;;6.35;1.00;;;21.10;51.50;;;;;;5091238;28;20060;-75
2021/05/06 12:43:28;;;;;;;2.60;0.60;;;21.10;51.40;;;;;;5081958;28;20039;-74
2021/05/06 12:46:09;;;;;;;3.38;0.70;;;21.00;51.30;;;;;;5085128;28;20551;-75
2021/05/06 12:48:42;;;;;;;2.90;1.02;;;21.00;51.20;;;;;;5083353;28;20032;-73
2021/05/06 12:51:10;;;;;;;5.70;0.90;;;21.00;51.10;;;;;;5090437;28;20365;-74
2021/05/06 12:53:37;;;;;;;3.03;0.77;;;21.00;51.20;;;;;;5087471;28;20522;-73
2021/05/06 12:56:04;;;;;;;3.45;1.00;;;21.00;51.00;;;;;;5084906;28;20020;-73
2021/05/06 12:58:32;;;;;;;2.67;0.70;;;21.00;50.80;;;;;;5084256;28;20023;-72
2021/05/06 13:00:58;;;;;;;3.42;0.70;;;21.00;50.70;;;;;;5096470;28;20024;-74
2021/05/06 13:03:32;;;;;;;2.80;1.13;;;21.00;50.60;;;;;;5088977;28;20035;-73
2021/05/06 13:06:09;;;;;;;3.85;0.82;;;20.90;50.60;;;;;;5087569;28;20028;-73
2021/05/06 13:08:46;;;;;;;4.68;1.00;;;20.90;50.60;;;;;;5089865;28;20020;-73
2021/05/06 13:11:21;;;;;;;2.00;0.90;;;20.90;50.60;;;;;;5086441;28;20032;-76
2021/05/06 13:13:51;;;;;;;;;;;20.80;50.50;;;;;;5086638;28;20559;-73
2021/05/06 13:16:35;;;;;;;4.43;0.93;;;20.80;50.50;;;;;;5090375;28;19904;-73
2021/05/06 13:19:02;;;;;;;5.28;1.02;;;20.80;50.50;;;;;;5075549;28;20044;-74
2021/05/06 13:21:28;;;;;;;2.53;0.70;;;20.80;50.40;;;;;;5087000;28;20020;-73
2021/05/06 13:23:54;;;;;;;4.50;0.68;;;20.70;50.40;;;;;;5076535;28;20027;-74
2021/05/06 13:26:33;;;;;;;3.60;0.90;;;20.70;50.40;;;;;;5084455;28;20032;-74
2021/05/06 13:29:01;;;;;;;3.10;0.80;;;20.60;50.30;;;;;;5085606;28;20108;-76
2021/05/06 13:31:35;;;;;;;1.42;0.50;;;20.50;50.40;;;;;;5088061;28;20511;-74
2021/05/06 13:34:15;;;;;;;1.80;0.73;;;20.50;50.50;;;;;;5083521;28;20028;-76
2021/05/06 13:36:45;;;;;;;2.80;0.80;;;20.40;50.60;;;;;;5089932;28;20032;-73
2021/05/06 13:39:13;;;;;;;2.03;0.80;;;20.30;50.60;;;;;;5089206;28;20020;-73
2021/05/06 13:41:42;;;;;;;1.58;0.80;;;20.30;50.60;;;;;;5090060;28;20032;-74
2021/05/06 13:44:09;;;;;;;3.33;0.70;;;20.20;51.20;;;;;;5090316;28;20028;-75
2021/05/06 13:46:54;;;;;;;3.50;0.80;;;20.20;50.70;;;;;;5083474;28;20012;-73
2021/05/06 13:49:25;;;;;;;1.65;0.63;;;20.20;50.90;;;;;;5090113;28;20036;-74
2021/05/06 13:51:52;;;;;;;2.58;0.73;;;20.20;50.70;;;;;;5090124;28;20036;-73
2021/05/06 13:54:19;;;;;;;1.20;0.60;;;20.10;50.80;;;;;;5089638;28;20039;-74
2021/05/06 13:56:45;;;;;;;2.08;0.88;;;20.10;50.90;;;;;;5089691;28;20034;-72
2021/05/06 13:59:11;;;;;;;3.78;0.80;;;20.10;50.70;;;;;;5088745;28;20103;-73
2021/05/06 14:01:37;;;;;;;3.28;0.70;;;20.00;50.60;;;;;;5104902;28;20056;-73
2021/05/06 14:04:03;;;;;;;4.55;0.77;;;20.00;50.60;;;;;;5089795;28;20515;-75
2021/05/06 14:06:29;;;;;;;2.50;0.80;;;19.90;50.60;;;;;;5089356;28;20024;-74
2021/05/06 14:08:54;;;;;;;3.05;0.70;;;19.90;50.70;;;;;;5088505;28;20511;-75
2021/05/06 14:11:20;;;;;;;2.25;0.70;;;19.80;50.60;;;;;;5089450;28;20090;-76
2021/05/06 14:13:47;;;;;;;3.75;0.70;;;19.80;50.80;;;;;;5089391;28;20024;-76
2021/05/06 14:16:13;;;;;;;3.72;0.77;;;19.80;50.80;;;;;;5089413;28;20031;-75
2021/05/06 14:18:39;;;;;;;5.82;0.95;;;19.80;51.00;;;;;;5093212;28;20553;-75
2021/05/06 14:21:07;;;;;;;3.28;0.70;;;19.80;50.80;;;;;;5094433;28;20068;-74
2021/05/06 14:23:40;;;;;;;3.40;0.90;;;19.70;50.70;;;;;;5093294;28;20031;-74
2021/05/06 14:26:07;;;;;;;2.92;0.88;;;19.70;50.70;;;;;;5093265;28;20372;-75
2021/05/06 14:28:33;;;;;;;2.42;0.77;;;19.70;50.90;;;;;;5094468;28;20023;-74
2021/05/06 14:30:59;;;;;;;2.20;0.60;;;19.70;50.90;;;;;;5090562;28;20081;-75
2021/05/06 14:33:24;;;;;;;4.82;1.10;;;19.70;50.90;;;;;;5091774;28;20024;-74
2021/05/06 14:35:50;;;;;;;4.03;0.70;;;20.10;51.80;;;;;;5083430;28;20496;-74
2021/05/06 14:38:15;;;;;;;1.55;0.47;;;20.20;50.10;;;;;;5092820;28;20107;-74
2021/05/06 14:40:41;;;;;;;1.67;0.57;;;20.30;50.00;;;;;;5092854;28;20032;-74
2021/05/06 14:43:07;;;;;;;9.57;0.77;;;20.30;50.30;;;;;;5092049;28;20024;-73
2021/05/06 14:45:36;;;;;;;1.92;0.70;;;20.20;50.50;;;;;;5092130;28;20032;-74
2021/05/06 14:48:03;;;;;;;1.35;0.55;;;20.20;50.50;;;;;;5092396;28;20403;-73
2021/05/06 14:50:30;;;;;;;4.50;0.95;;;20.20;50.70;;;;;;5092691;28;20035;-73
2021/05/06 14:52:56;;;;;;;3.10;0.90;;;20.30;50.80;;;;;;5093469;28;20024;-74
2021/05/06 14:55:23;;;;;;;2.38;0.68;;;20.30;50.80;;;;;;5092068;28;20035;-74
2021/05/06 14:57:50;;;;;;;4.75;0.70;;;20.30;50.90;;;;;;5093639;28;20430;-75
2021/05/06 15:00:18;;;;;;;6.63;0.80;;;20.30;51.10;;;;;;5093011;28;20480;-76
2021/05/06 15:02:44;;;;;;;6.15;0.60;;;20.30;51.10;;;;;;5092406;28;20035;-73
2021/05/06 15:05:11;;;;;;;2.95;0.57;;;20.30;51.00;;;;;;5093360;28;20095;-74
2021/05/06 15:07:36;;;;;;;2.05;0.60;;;20.30;51.00;;;;;;5090114;28;20492;-74
2021/05/06 15:10:04;;;;;;;1.55;0.50;;;20.30;50.90;;;;;;5080551;28;20100;-74
2021/05/06 15:12:32;;;;;;;3.75;1.13;;;20.30;50.80;;;;;;5092433;28;20047;-74
2021/05/06 15:14:58;;;;;;;2.20;0.80;;;20.30;51.10;;;;;;5091858;28;20107;-73
2021/05/06 15:17:23;;;;;;;3.45;0.80;;;20.30;51.00;;;;;;5090205;28;20032;-74
2021/05/06 15:19:49;;;;;;;5.20;0.68;;;20.40;50.90;;;;;;5091724;28;20078;-75
2021/05/06 15:22:15;;;;;;;3.00;0.80;;;20.40;50.80;;;;;;5092751;28;20047;-75
2021/05/06 15:24:41;;;;;;;2.17;0.68;;;20.40;50.80;;;;;;5084262;28;20035;-75
2021/05/06 15:27:06;;;;;;;4.30;0.90;;;20.40;50.70;;;;;;5092775;28;20103;-75
2021/05/06 15:29:32;;;;;;;1.33;0.50;;;20.40;50.70;;;;;;5090178;28;20095;-75
2021/05/06 15:31:58;;;;;;;2.83;0.80;;;20.40;50.60;;;;;;5079313;28;20039;-75
2021/05/06 15:34:23;;;;;;;5.07;0.70;;;20.40;50.90;;;;;;5082499;28;20089;-76
2021/05/06 15:36:49;;;;;;;2.40;0.70;;;20.50;51.00;;;;;;5086772;28;20024;-75
2021/05/06 15:39:15;;;;;;;2.38;0.90;;;20.60;50.90;;;;;;5076851;28;20427;-74
2021/05/06 15:41:40;;;;;;;3.03;0.88;;;20.60;50.80;;;;;;5089162;28;20031;-75
2021/05/06 15:44:06;;;;;;;2.72;0.60;;;20.60;50.90;;;;;;5091237;28;20039;-74
2021/05/06 15:46:35;;;;;;;6.60;1.00;;;20.60;51.20;;;;;;5093313;28;20056;-76
2021/05/06 15:49:03;;;;;;;9.38;0.90;;;20.60;51.70;;;;;;5092204;28;20039;-75
2021/05/06 15:51:29;;;;;;;8.73;0.80;;;20.60;51.30;;;;;;5092922;28;20115;-74
2021/05/06 15:53:55;;;;;;;8.07;0.73;;;20.60;51.50;;;;;;5092721;28;20028;-76
2021/05/06 15:56:21;;;;;;;8.73;0.90;;;20.60;52.00;;;;;;5083280;28;20031;-73
2021/05/06 15:58:48;;;;;;;5.15;1.13;;;20.60;51.40;;;;;;5086366;28;20065;-73
2021/05/06 16:01:15;;;;;;;4.57;0.80;;;20.60;51.40;;;;;;5076229;28;20021;-74
2021/05/06 16:03:47;;;;;;;4.50;0.60;;;20.60;51.40;;;;;;5088483;28;20462;-74
2021/05/06 16:06:13;;;;;;;2.03;0.60;;;20.60;51.40;;;;;;5081158;28;20536;-73
2021/05/06 16:08:39;;;;;;;2.80;0.68;;;20.50;51.50;;;;;;5080672;28;20068;-72
2021/05/06 16:11:04;;;;;;;5.20;0.82;;;20.50;51.60;;;;;;5088819;28;20024;-73
2021/05/06 16:13:30;;;;;;;4.43;0.77;;;20.50;51.90;;;;;;5075775;28;20071;-73